createdAt,value
2018-11-07T00:00:07.836Z,12.17
2018-11-07T00:02:40.221Z,12.15
2018-11-07T00:05:09.476Z,12.14
2018-11-07T00:07:38.060Z,12.13
2018-11-07T00:10:08.009Z,12.12
2018-11-07T00:12:36.792Z,12.11
2018-11-07T00:15:06.015Z,12.11
2018-11-07T00:17:38.069Z,12.08
2018-11-07T00:20:09.002Z,12.07
2018-11-07T00:22:38.284Z,12.06
2018-11-07T00:25:07.955Z,12.05
2018-11-07T00:27:36.869Z,12.04
2018-11-07T00:30:06.715Z,12.03
2018-11-07T00:32:35.261Z,12.02
2018-11-07T00:35:03.977Z,12.03
2018-11-07T00:37:32.408Z,12.06
2018-11-07T00:40:00.968Z,12.09
2018-11-07T00:42:29.575Z,12.12
2018-11-07T00:44:58.181Z,12.13
2018-11-07T00:47:27.911Z,12.16
2018-11-07T00:49:56.386Z,12.18
2018-11-07T00:52:25.018Z,12.20
2018-11-07T00:54:56.629Z,12.22
2018-11-07T00:57:25.201Z,12.24
2018-11-07T00:59:53.818Z,12.26
2018-11-07T01:02:22.523Z,12.26
2018-11-07T01:04:55.145Z,12.27
2018-11-07T01:07:24.087Z,12.25
2018-11-07T01:09:52.677Z,12.24
2018-11-07T01:12:21.159Z,12.19
2018-11-07T01:14:49.791Z,12.17
2018-11-07T01:17:18.281Z,12.14
2018-11-07T01:19:47.492Z,12.10
2018-11-07T01:22:16.305Z,12.07
2018-11-07T01:24:45.012Z,12.09
2018-11-07T01:27:13.626Z,12.11
2018-11-07T01:29:42.080Z,12.14
2018-11-07T01:32:10.582Z,12.16
2018-11-07T01:34:39.146Z,12.18
2018-11-07T01:37:07.684Z,12.20
2018-11-07T01:39:36.142Z,12.22
2018-11-07T01:42:04.720Z,12.24
2018-11-07T01:44:33.242Z,12.22
2018-11-07T01:47:01.715Z,12.17
2018-11-07T01:49:30.384Z,12.16
2018-11-07T01:51:59.651Z,12.16
2018-11-07T01:54:28.261Z,12.13
2018-11-07T01:56:56.886Z,12.13
2018-11-07T01:59:25.299Z,12.15
2018-11-07T02:01:54.681Z,12.15
2018-11-07T02:06:58.543Z,12.11
2018-11-07T02:09:27.128Z,12.09
2018-11-07T02:11:55.793Z,12.06
2018-11-07T02:14:24.247Z,12.01
2018-11-07T02:16:52.757Z,11.99
2018-11-07T02:19:22.874Z,11.94
2018-11-07T02:21:51.294Z,11.92
2018-11-07T02:24:19.779Z,11.89
2018-11-07T02:26:48.235Z,11.87
2018-11-07T02:29:16.933Z,11.87
2018-11-07T02:31:46.664Z,11.85
2018-11-07T02:34:15.924Z,11.83
2018-11-07T02:36:44.544Z,11.83
2018-11-07T02:39:14.255Z,11.86
2018-11-07T02:41:43.113Z,11.85
2018-11-07T02:44:12.891Z,11.83
2018-11-07T02:46:42.168Z,11.82
2018-11-07T02:49:10.673Z,11.81
2018-11-07T02:51:39.302Z,11.82
2018-11-07T02:54:07.717Z,11.79
2018-11-07T02:56:36.900Z,11.77
2018-11-07T02:59:07.159Z,11.76
2018-11-07T03:01:35.717Z,11.75
2018-11-07T03:04:04.302Z,11.73
2018-11-07T03:06:33.495Z,11.72
2018-11-07T03:09:02.544Z,11.72
2018-11-07T03:11:31.088Z,11.69
2018-11-07T03:13:59.509Z,11.68
2018-11-07T03:21:35.483Z,11.70
2018-11-07T03:24:04.639Z,11.69
2018-11-07T03:26:33.293Z,11.69
2018-11-07T03:29:02.657Z,11.70
2018-11-07T03:31:31.148Z,11.70
2018-11-07T03:33:59.641Z,11.70
2018-11-07T03:39:02.706Z,11.68
2018-11-07T03:41:31.198Z,11.65
2018-11-07T03:43:59.985Z,11.64
2018-11-07T03:46:28.797Z,11.64
2018-11-07T03:48:57.249Z,11.63
2018-11-07T03:51:29.681Z,11.65
2018-11-07T03:53:58.166Z,11.63
2018-11-07T03:56:26.806Z,11.61
2018-11-07T03:58:56.318Z,11.59
2018-11-07T04:01:25.001Z,11.55
2018-11-07T04:03:54.214Z,11.54
2018-11-07T04:06:22.785Z,11.50
2018-11-07T04:08:51.302Z,11.50
2018-11-07T04:11:20.049Z,11.49
2018-11-07T04:13:48.685Z,11.46
2018-11-07T04:16:17.309Z,11.43
2018-11-07T04:18:46.124Z,11.42
2018-11-07T04:21:15.626Z,11.41
2018-11-07T04:28:56.010Z,11.38
2018-11-07T04:31:24.565Z,11.37
2018-11-07T04:33:53.014Z,11.35
2018-11-07T04:36:21.699Z,11.29
2018-11-07T04:38:50.204Z,11.30
2018-11-07T04:43:52.823Z,11.27
2018-11-07T04:46:21.457Z,11.25
2018-11-07T04:48:50.100Z,11.23
2018-11-07T04:51:18.607Z,11.21
2018-11-07T04:53:47.340Z,11.19
2018-11-07T04:56:17.269Z,11.19
2018-11-07T04:58:45.836Z,11.15
2018-11-07T05:01:14.459Z,11.18
2018-11-07T05:03:43.034Z,11.13
2018-11-07T05:06:12.482Z,11.16
2018-11-07T05:08:41.047Z,11.16
2018-11-07T05:11:09.555Z,11.16
2018-11-07T05:13:38.356Z,11.15
2018-11-07T05:16:06.881Z,11.16
2018-11-07T05:18:35.399Z,11.15
2018-11-07T05:21:03.920Z,11.15
2018-11-07T05:23:32.489Z,11.14
2018-11-07T05:26:01.138Z,11.14
2018-11-07T05:28:32.779Z,11.13
2018-11-07T05:31:01.393Z,11.12
2018-11-07T05:33:30.084Z,11.09
2018-11-07T05:36:00.190Z,11.10
2018-11-07T05:38:29.837Z,11.08
2018-11-07T05:40:58.448Z,11.07
2018-11-07T05:43:26.865Z,11.06
2018-11-07T05:45:55.505Z,11.06
2018-11-07T05:48:24.077Z,11.06
2018-11-07T05:50:53.688Z,11.06
2018-11-07T05:53:22.151Z,11.03
2018-11-07T05:55:50.625Z,10.98
2018-11-07T05:58:21.197Z,11.03
2018-11-07T06:00:49.706Z,11.01
2018-11-07T06:03:18.305Z,11.01
2018-11-07T06:05:46.891Z,11.02
2018-11-07T06:08:15.514Z,11.02
2018-11-07T06:10:48.042Z,11.01
2018-11-07T06:13:16.744Z,11.01
2018-11-07T06:15:45.296Z,11.01
2018-11-07T06:18:13.772Z,10.99
2018-11-07T06:20:42.409Z,10.98
2018-11-07T06:23:10.877Z,10.98
2018-11-07T06:25:42.928Z,10.97
2018-11-07T06:28:11.503Z,10.98
2018-11-07T06:30:40.694Z,10.98
2018-11-07T06:33:09.428Z,10.96
2018-11-07T06:35:37.980Z,10.93
2018-11-07T06:38:06.529Z,10.90
2018-11-07T06:40:35.271Z,10.87
2018-11-07T06:43:03.868Z,10.86
2018-11-07T06:45:32.646Z,10.85
2018-11-07T06:48:01.087Z,10.86
2018-11-07T06:50:29.650Z,10.84
2018-11-07T06:52:58.269Z,10.85
2018-11-07T06:55:26.848Z,10.85
2018-11-07T06:57:55.290Z,10.87
2018-11-07T07:02:58.561Z,10.90
2018-11-07T07:05:27.074Z,10.90
2018-11-07T07:07:55.760Z,10.93
2018-11-07T07:10:24.436Z,10.93
2018-11-07T07:12:52.860Z,10.95
2018-11-07T07:15:21.349Z,10.98
2018-11-07T07:17:50.085Z,11.00
2018-11-07T07:20:20.520Z,11.02
2018-11-07T07:22:50.044Z,11.04
2018-11-07T07:25:19.041Z,11.06
2018-11-07T07:30:22.499Z,11.12
2018-11-07T07:35:26.117Z,11.16
2018-11-07T07:37:54.651Z,11.13
2018-11-07T07:40:23.217Z,11.18
2018-11-07T07:42:52.461Z,11.18
2018-11-07T07:45:24.522Z,11.20
2018-11-07T07:47:53.183Z,11.23
2018-11-07T07:50:21.675Z,11.26
2018-11-07T07:52:50.424Z,11.28
2018-11-07T07:55:19.000Z,11.31
2018-11-07T07:57:47.626Z,11.32
2018-11-07T08:00:20.249Z,11.35
2018-11-07T08:02:51.126Z,11.38
2018-11-07T08:05:19.726Z,11.42
2018-11-07T08:07:48.512Z,11.43
2018-11-07T08:12:52.768Z,11.45
2018-11-07T08:15:21.912Z,11.55
2018-11-07T08:17:50.560Z,11.58
2018-11-07T08:20:19.643Z,11.61
2018-11-07T08:22:48.873Z,11.67
2018-11-07T08:25:17.403Z,11.69
2018-11-07T08:27:45.914Z,11.71
2018-11-07T08:30:16.207Z,11.73
2018-11-07T08:32:45.362Z,11.74
2018-11-07T08:35:14.481Z,11.80
2018-11-07T08:37:43.821Z,11.82
2018-11-07T08:40:15.683Z,11.89
2018-11-07T08:45:18.269Z,11.99
2018-11-07T08:47:48.363Z,12.05
2018-11-07T08:50:22.814Z,12.12
2018-11-07T08:52:51.430Z,12.22
2018-11-07T08:55:22.132Z,12.32
2018-11-07T08:57:50.629Z,12.43
2018-11-07T09:00:21.489Z,12.54
2018-11-07T09:02:50.104Z,12.65
2018-11-07T09:05:19.550Z,12.74
2018-11-07T09:07:50.317Z,12.85
2018-11-07T09:10:20.313Z,12.96
2018-11-07T09:12:48.856Z,13.07
2018-11-07T09:15:19.341Z,13.22
2018-11-07T09:17:48.108Z,13.36
2018-11-07T09:20:18.665Z,13.49
2018-11-07T09:22:47.728Z,13.60
2018-11-07T09:25:16.702Z,13.61
2018-11-07T09:27:46.124Z,13.56
2018-11-07T09:30:16.668Z,13.51
2018-11-07T09:32:45.727Z,13.50
2018-11-07T09:35:14.863Z,13.53
2018-11-07T09:37:43.420Z,13.62
2018-11-07T09:40:14.988Z,13.75
2018-11-07T09:42:44.119Z,13.88
2018-11-07T09:45:14.178Z,14.01
2018-11-07T09:47:43.533Z,14.00
2018-11-07T09:50:22.079Z,14.08
2018-11-07T09:52:50.719Z,14.20
2018-11-07T09:55:20.551Z,14.33
2018-11-07T09:57:49.875Z,14.43
2018-11-07T10:00:21.202Z,14.56
2018-11-07T10:02:49.812Z,14.68
2018-11-07T10:05:19.932Z,14.81
2018-11-07T10:07:48.730Z,14.92
2018-11-07T10:10:18.605Z,15.02
2018-11-07T10:12:47.557Z,15.12
2018-11-07T10:15:16.397Z,15.24
2018-11-07T10:17:45.092Z,15.37
2018-11-07T10:20:20.370Z,15.50
2018-11-07T10:22:49.385Z,15.59
2018-11-07T10:25:18.569Z,15.69
2018-11-07T10:27:47.532Z,15.80
2018-11-07T10:30:17.539Z,15.90
2018-11-07T10:32:47.135Z,15.99
2018-11-07T10:35:15.601Z,16.05
2018-11-07T10:37:44.507Z,16.17
2018-11-07T10:40:15.754Z,16.28
2018-11-07T10:42:45.586Z,16.39
2018-11-07T10:45:15.232Z,16.53
2018-11-07T10:47:45.002Z,16.61
2018-11-07T10:50:18.339Z,16.74
2018-11-07T10:52:47.478Z,16.91
2018-11-07T10:55:17.594Z,17.07
2018-11-07T10:57:46.482Z,17.23
2018-11-07T11:00:21.212Z,17.36
2018-11-07T11:02:55.377Z,17.54
2018-11-07T11:05:23.890Z,17.77
2018-11-07T11:07:52.388Z,18.00
2018-11-07T11:10:21.333Z,18.17
2018-11-07T11:12:50.240Z,18.37
2018-11-07T11:15:18.652Z,18.61
2018-11-07T11:17:47.082Z,18.83
2018-11-07T11:20:15.740Z,18.86
2018-11-07T11:25:20.570Z,18.48
2018-11-07T11:27:49.057Z,18.28
2018-11-07T11:30:19.093Z,18.07
2018-11-07T11:32:47.735Z,17.87
2018-11-07T11:35:16.333Z,17.82
2018-11-07T11:37:44.949Z,17.68
2018-11-07T11:40:14.815Z,17.62
2018-11-07T11:42:44.474Z,17.50
2018-11-07T11:45:15.195Z,17.39
2018-11-07T11:47:44.237Z,17.31
2018-11-07T11:50:15.021Z,17.30
2018-11-07T11:52:44.812Z,17.27
2018-11-07T11:55:13.306Z,17.23
2018-11-07T11:57:42.371Z,17.21
2018-11-07T12:00:13.186Z,17.27
2018-11-07T12:02:41.642Z,17.29
2018-11-07T12:05:12.990Z,17.27
2018-11-07T12:07:41.988Z,17.27
2018-11-07T12:10:28.655Z,17.23
2018-11-07T12:13:03.739Z,17.21
2018-11-07T12:15:32.165Z,17.23
2018-11-07T12:18:00.568Z,17.22
2018-11-07T12:20:29.077Z,17.18
2018-11-07T12:22:57.621Z,17.18
2018-11-07T12:25:26.201Z,17.18
2018-11-07T12:27:54.929Z,17.14
2018-11-07T12:30:25.490Z,17.15
2018-11-07T12:32:54.812Z,17.17
2018-11-07T12:35:23.510Z,17.21
2018-11-07T12:37:51.960Z,17.29
2018-11-07T12:40:20.943Z,17.40
2018-11-07T12:42:49.679Z,17.45
2018-11-07T12:45:18.306Z,17.47
2018-11-07T12:47:47.129Z,17.45
2018-11-07T12:50:17.625Z,17.42
2018-11-07T12:52:46.738Z,17.38
2018-11-07T12:55:15.601Z,17.33
2018-11-07T12:57:44.073Z,17.25
2018-11-07T13:00:17.021Z,17.16
2018-11-07T13:02:45.690Z,17.11
2018-11-07T13:05:15.572Z,17.06
2018-11-07T13:07:44.978Z,17.02
2018-11-07T13:10:14.755Z,16.96
2018-11-07T13:12:44.058Z,16.94
2018-11-07T13:15:13.197Z,16.93
2018-11-07T13:17:41.607Z,16.89
2018-11-07T13:20:14.536Z,16.86
2018-11-07T13:22:43.922Z,16.82
2018-11-07T13:25:13.355Z,16.76
2018-11-07T13:27:41.819Z,16.73
2018-11-07T13:30:12.932Z,16.70
2018-11-07T13:32:41.851Z,16.67
2018-11-07T13:35:11.301Z,16.66
2018-11-07T13:37:40.652Z,16.66
2018-11-07T13:40:12.983Z,16.67
2018-11-07T13:42:41.735Z,16.67
2018-11-07T13:45:13.678Z,16.65
2018-11-07T13:47:43.104Z,16.65
2018-11-07T13:50:12.468Z,16.62
2018-11-07T13:52:47.688Z,16.59
2018-11-07T13:55:17.026Z,16.54
2018-11-07T13:57:45.926Z,16.52
2018-11-07T14:00:16.644Z,16.50
2018-11-07T14:02:45.807Z,16.49
2018-11-07T14:05:14.350Z,16.47
2018-11-07T14:07:44.681Z,16.45
2018-11-07T14:10:22.611Z,16.41
2018-11-07T14:12:51.495Z,16.38
2018-11-07T14:15:20.142Z,16.37
2018-11-07T14:17:48.623Z,16.35
2018-11-07T14:20:17.153Z,16.32
2018-11-07T14:22:46.026Z,16.29
2018-11-07T14:25:14.782Z,16.27
2018-11-07T14:27:46.944Z,16.26
2018-11-07T14:30:17.606Z,16.25
2018-11-07T14:32:52.736Z,16.23
2018-11-07T14:35:21.516Z,16.22
2018-11-07T14:37:50.673Z,16.21
2018-11-07T14:40:22.084Z,16.20
2018-11-07T14:45:25.889Z,16.15
2018-11-07T14:48:01.426Z,16.12
2018-11-07T14:50:30.072Z,16.07
2018-11-07T14:52:59.272Z,16.05
2018-11-07T14:55:27.668Z,15.99
2018-11-07T14:57:56.322Z,15.96
2018-11-07T15:00:24.750Z,15.93
2018-11-07T15:02:53.537Z,15.85
2018-11-07T15:05:22.112Z,15.78
2018-11-07T15:07:50.541Z,15.72
2018-11-07T15:10:19.108Z,15.69
2018-11-07T15:12:47.569Z,15.65
2018-11-07T15:15:17.377Z,15.64
2018-11-07T15:17:45.787Z,15.59
2018-11-07T15:20:15.407Z,15.55
2018-11-07T15:22:44.151Z,15.47
2018-11-07T15:27:49.678Z,15.41
2018-11-07T15:30:18.581Z,15.38
2018-11-07T15:32:47.345Z,15.36
2018-11-07T15:35:15.877Z,15.35
2018-11-07T15:37:44.411Z,15.37
2018-11-07T15:40:14.361Z,15.37
2018-11-07T15:42:43.215Z,15.36
2018-11-07T15:45:13.971Z,15.35
2018-11-07T15:47:42.997Z,15.34
2018-11-07T15:50:16.867Z,15.32
2018-11-07T15:52:46.205Z,15.31
2018-11-07T15:55:14.909Z,15.30
2018-11-07T15:57:43.352Z,15.30
2018-11-07T16:00:19.605Z,15.29
2018-11-07T16:02:48.192Z,15.26
2018-11-07T16:05:17.269Z,15.23
2018-11-07T16:07:45.877Z,15.22
2018-11-07T16:10:15.212Z,15.21
2018-11-07T16:12:44.995Z,15.20
2018-11-07T16:15:18.799Z,15.16
2018-11-07T16:17:48.007Z,15.13
2018-11-07T16:20:19.685Z,15.12
2018-11-07T16:22:49.001Z,15.09
2018-11-07T16:25:17.676Z,15.07
2018-11-07T16:27:46.436Z,15.04
2018-11-07T16:30:16.464Z,15.04
2018-11-07T16:32:44.929Z,15.06
2018-11-07T16:35:13.939Z,15.04
2018-11-07T16:37:42.840Z,15.02
2018-11-07T16:40:15.734Z,15.02
2018-11-07T16:42:44.698Z,15.00
2018-11-07T16:45:14.205Z,14.98
2018-11-07T16:47:42.935Z,14.99
2018-11-07T16:50:12.812Z,14.99
2018-11-07T16:52:41.459Z,14.99
2018-11-07T16:55:09.837Z,15.00
2018-11-07T16:57:38.798Z,14.98
2018-11-07T17:00:12.320Z,14.99
2018-11-07T17:02:41.063Z,14.98
2018-11-07T17:05:10.074Z,14.98
2018-11-07T17:07:38.837Z,14.98
2018-11-07T17:10:08.445Z,14.99
2018-11-07T17:12:37.225Z,14.98
2018-11-07T17:15:07.129Z,14.97
2018-11-07T17:17:35.926Z,14.94
2018-11-07T17:20:04.404Z,14.93
2018-11-07T17:22:39.588Z,14.93
2018-11-07T17:25:10.076Z,14.92
2018-11-07T17:27:38.999Z,14.91
2018-11-07T17:30:08.772Z,14.89
2018-11-07T17:32:37.343Z,14.86
2018-11-07T17:37:35.361Z,14.79
2018-11-07T17:40:05.654Z,14.76
2018-11-07T17:42:34.161Z,14.73
2018-11-07T17:45:02.629Z,14.73
2018-11-07T17:47:31.278Z,14.70
2018-11-07T17:49:59.866Z,14.67
2018-11-07T17:52:28.480Z,14.65
2018-11-07T17:54:56.919Z,14.64
2018-11-07T17:57:25.650Z,14.64
2018-11-07T17:59:54.250Z,14.62
2018-11-07T18:02:22.925Z,14.60
2018-11-07T18:04:51.479Z,14.59
2018-11-07T18:07:20.041Z,14.58
2018-11-07T18:09:48.574Z,14.53
2018-11-07T18:12:17.006Z,14.49
2018-11-07T18:14:46.550Z,14.49
2018-11-07T18:17:15.262Z,14.48
2018-11-07T18:19:43.823Z,14.46
2018-11-07T18:22:12.261Z,14.44
2018-11-07T18:24:40.683Z,14.45
2018-11-07T18:27:09.112Z,14.44
2018-11-07T18:29:37.765Z,14.41
2018-11-07T18:32:06.267Z,14.40
2018-11-07T18:34:36.586Z,14.38
2018-11-07T18:37:06.064Z,14.35
2018-11-07T18:39:35.539Z,14.35
2018-11-07T18:42:04.176Z,14.35
2018-11-07T18:44:32.739Z,14.36
2018-11-07T18:47:01.328Z,14.34
2018-11-07T18:49:29.872Z,14.31
2018-11-07T18:51:58.339Z,14.28
2018-11-07T18:54:26.813Z,14.26
2018-11-07T18:56:55.655Z,14.22
2018-11-07T18:59:24.070Z,14.21
2018-11-07T19:01:56.225Z,14.17
2018-11-07T19:04:24.809Z,14.17
2018-11-07T19:09:27.921Z,14.14
2018-11-07T19:11:56.337Z,14.12
2018-11-07T19:14:24.858Z,14.11
2018-11-07T19:16:53.396Z,14.10
2018-11-07T19:19:21.774Z,14.07
2018-11-07T19:21:50.233Z,14.01
2018-11-07T19:24:18.745Z,13.99
2018-11-07T19:26:47.281Z,13.97
2018-11-07T19:29:16.153Z,13.95
2018-11-07T19:34:18.984Z,13.92
2018-11-07T19:36:47.561Z,13.89
2018-11-07T19:39:21.224Z,13.88
2018-11-07T19:44:24.197Z,13.86
2018-11-07T19:46:56.225Z,13.85
2018-11-07T19:49:24.604Z,13.84
2018-11-07T19:51:53.163Z,13.84
2018-11-07T19:54:21.695Z,13.85
2018-11-07T19:56:50.318Z,13.85
2018-11-07T19:59:18.883Z,13.84
2018-11-07T20:01:47.458Z,13.85
2018-11-07T20:04:16.373Z,13.85
2018-11-07T20:06:45.037Z,13.85
2018-11-07T20:09:13.950Z,13.86
2018-11-07T20:11:42.533Z,13.86
2018-11-07T20:16:45.235Z,13.84
2018-11-07T20:19:13.711Z,13.84
2018-11-07T20:21:42.467Z,13.83
2018-11-07T20:24:11.056Z,13.82
2018-11-07T20:26:39.535Z,13.83
2018-11-07T20:29:08.121Z,13.82
2018-11-07T20:31:36.791Z,13.83
2018-11-07T20:34:05.493Z,13.81
2018-11-07T20:36:34.014Z,13.81
2018-11-07T20:39:02.622Z,13.82
2018-11-07T20:44:05.646Z,13.78
2018-11-07T20:46:34.336Z,13.78
2018-11-07T20:49:02.841Z,13.80
2018-11-07T20:54:05.881Z,13.77
2018-11-07T20:56:35.793Z,13.77
2018-11-07T20:59:04.369Z,13.75
2018-11-07T21:01:33.016Z,13.72
2018-11-07T21:04:01.819Z,13.70
2018-11-07T21:06:30.422Z,13.68
2018-11-07T21:08:59.014Z,13.65
2018-11-07T21:11:27.514Z,13.65
2018-11-07T21:13:56.092Z,13.63
2018-11-07T21:16:24.905Z,13.63
2018-11-07T21:18:53.793Z,13.62
2018-11-07T21:21:22.333Z,13.60
2018-11-07T21:23:51.053Z,13.59
2018-11-07T21:28:53.827Z,13.53
2018-11-07T21:31:22.381Z,13.52
2018-11-07T21:33:50.989Z,13.52
2018-11-07T21:38:53.893Z,13.47
2018-11-07T21:41:22.476Z,13.46
2018-11-07T21:43:51.180Z,13.45
2018-11-07T21:46:19.594Z,13.43
2018-11-07T21:51:22.659Z,13.40
2018-11-07T21:53:51.271Z,13.39
2018-11-07T21:56:19.757Z,13.37
2018-11-07T22:01:22.314Z,13.36
2018-11-07T22:03:50.886Z,13.35
2018-11-07T22:06:19.593Z,13.33
2018-11-07T22:08:48.152Z,13.32
2018-11-07T22:11:16.769Z,13.30
2018-11-07T22:13:45.319Z,13.28
2018-11-07T22:16:14.582Z,13.25
2018-11-07T22:18:43.297Z,13.28
2018-11-07T22:21:11.913Z,13.28
2018-11-07T22:23:40.585Z,13.26
2018-11-07T22:26:09.088Z,13.26
2018-11-07T22:28:37.609Z,13.27
2018-11-07T22:31:06.404Z,13.28
2018-11-07T22:33:35.122Z,13.30
2018-11-07T22:36:03.609Z,13.31
2018-11-07T22:38:32.077Z,13.30
2018-11-07T22:41:00.764Z,13.29
2018-11-07T22:43:29.310Z,13.26
2018-11-07T22:45:57.945Z,13.22
2018-11-07T22:48:26.618Z,13.18
2018-11-07T22:53:29.123Z,13.10
2018-11-07T22:55:57.549Z,13.08
2018-11-07T22:58:25.997Z,13.05
2018-11-07T23:01:02.541Z,13.03
2018-11-07T23:03:31.769Z,12.99
2018-11-07T23:06:00.124Z,12.98
2018-11-07T23:08:28.580Z,12.96
2018-11-07T23:10:56.986Z,12.96
2018-11-07T23:13:25.569Z,12.95
2018-11-07T23:15:54.113Z,12.92
2018-11-07T23:18:22.721Z,12.91
2018-11-07T23:20:51.147Z,12.89
2018-11-07T23:23:19.708Z,12.86
2018-11-07T23:25:48.335Z,12.88
2018-11-07T23:28:17.034Z,12.92
2018-11-07T23:30:45.511Z,12.98
2018-11-07T23:33:14.075Z,13.02
2018-11-07T23:35:42.606Z,13.05
2018-11-07T23:38:12.090Z,13.07
2018-11-07T23:40:41.683Z,13.10
2018-11-07T23:43:10.150Z,13.11
2018-11-07T23:45:38.833Z,13.12
2018-11-07T23:48:12.683Z,13.12
2018-11-07T23:50:41.148Z,13.10
2018-11-07T23:53:09.619Z,13.10
2018-11-07T23:55:38.097Z,13.10
2018-11-07T23:58:06.678Z,13.08
